PADK/ADK METAR and TAF weather

Enter ICAO airport designator
Station Type Date Time Source
PADK METAR 2019/06/27 10:56 UTC NOAA

PADK 271056Z AUTO 19007KT 10SM BKN009 OVC040 08/07 A2984 RMK AO2 SLP103 T00780067


Station Type Date Time Source
PADK Decoded METAR 2019/06/27 10:56 UTC NOAA

Adak Island, Adak Airport, AK, United States (PADK) 51-52-40N 176-38-45W 4M
Jun 27, 2019 - 06:56 AM EDT / 2019.06.27 1056 UTC
Wind: from the S (190 degrees) at 8 MPH (7 KT):0
Visibility: 10 mile(s):0
Sky conditions: overcast
Temperature: 46.0 F (7.8 C)
Dew Point: 44.1 F (6.7 C)
Relative Humidity: 92%
Pressure (altimeter): 29.84 in. Hg (1010 hPa)
ob: PADK 271056Z AUTO 19007KT 10SM BKN009 OVC040 08/07 A2984 RMK AO2 SLP103 T00780067
cycle: 11

Station Type Date Time Source
PADK TAF 2007/04/07 12:54 UTC NOAA

TAF PADK 070404 33010G15KT 9999 FEW025 BKN030 OVC050 QNH2900INS T03/00Z TM01/18Z COR 1205 LAST NO
AMDS AFT 0712;

Example: see airport list